createdAt,value
2023-05-17T00:01:11.913Z,12.44
2023-05-17T00:03:39.658Z,12.30
2023-05-17T00:06:07.698Z,12.46
2023-05-17T00:08:35.544Z,12.48
2023-05-17T00:11:03.533Z,12.45
2023-05-17T00:13:32.638Z,12.29
2023-05-17T00:16:00.492Z,12.21
2023-05-17T00:18:28.275Z,12.12
2023-05-17T00:20:56.226Z,12.09
2023-05-17T00:23:23.960Z,12.12
2023-05-17T00:25:51.869Z,12.20
2023-05-17T00:28:19.610Z,12.20
2023-05-17T00:30:48.689Z,12.09
2023-05-17T00:33:16.479Z,12.15
2023-05-17T00:35:45.291Z,11.94
2023-05-17T00:38:13.095Z,11.83
2023-05-17T00:40:40.817Z,11.83
2023-05-17T00:43:08.559Z,11.86
2023-05-17T00:45:36.335Z,11.49
2023-05-17T00:48:06.377Z,11.60
2023-05-17T00:50:34.654Z,11.53
2023-05-17T00:53:02.531Z,11.44
2023-05-17T00:55:31.475Z,11.40
2023-05-17T00:57:59.265Z,11.26
2023-05-17T01:00:27.059Z,11.35
2023-05-17T01:02:54.867Z,11.30
2023-05-17T01:05:24.204Z,11.41
2023-05-17T01:07:51.910Z,11.37
2023-05-17T01:10:19.744Z,11.40
2023-05-17T01:12:57.049Z,11.42
2023-05-17T01:15:29.463Z,11.54
2023-05-17T01:18:06.378Z,11.52
2023-05-17T01:20:39.110Z,11.32
2023-05-17T01:23:25.301Z,11.19
2023-05-17T01:26:11.500Z,11.12
2023-05-17T01:28:42.864Z,11.05
2023-05-17T01:31:12.626Z,11.32
2023-05-17T01:33:40.825Z,11.09
2023-05-17T01:36:09.633Z,11.02
2023-05-17T01:38:37.474Z,10.67
2023-05-17T01:41:13.730Z,10.76
2023-05-17T01:43:47.947Z,10.98
2023-05-17T01:46:22.808Z,10.68
2023-05-17T01:48:57.183Z,10.63
2023-05-17T01:51:27.852Z,10.51
2023-05-17T01:53:58.937Z,10.61
2023-05-17T01:56:34.696Z,10.77
2023-05-17T01:59:07.682Z,10.78
2023-05-17T02:01:37.107Z,10.69
2023-05-17T02:04:05.225Z,10.75
2023-05-17T02:06:33.191Z,10.61
2023-05-17T02:09:02.813Z,10.33
2023-05-17T02:11:30.715Z,10.41
2023-05-17T02:13:58.912Z,10.09
2023-05-17T02:16:28.078Z,10.20
2023-05-17T02:18:56.017Z,10.14
2023-05-17T02:21:23.888Z,10.17
2023-05-17T02:23:51.666Z,10.17
2023-05-17T02:26:19.461Z,10.21
2023-05-17T02:28:47.184Z,10.07
2023-05-17T02:31:14.914Z,10.14
2023-05-17T02:33:44.060Z,9.89
2023-05-17T02:36:11.982Z,10.04
2023-05-17T02:38:40.191Z,9.95
2023-05-17T02:41:07.916Z,9.94
2023-05-17T02:43:35.674Z,9.90
2023-05-17T02:46:03.510Z,10.12
2023-05-17T02:48:31.456Z,10.19
2023-05-17T02:51:00.589Z,10.18
2023-05-17T02:53:28.471Z,10.21
2023-05-17T02:55:57.956Z,10.43
2023-05-17T02:58:26.006Z,10.76
2023-05-17T03:00:53.778Z,10.51
2023-05-17T03:03:21.749Z,10.30
2023-05-17T03:05:49.634Z,10.56
2023-05-17T03:08:18.780Z,10.48
2023-05-17T03:10:46.578Z,10.33
2023-05-17T03:13:14.320Z,10.34
2023-05-17T03:15:42.228Z,10.18
2023-05-17T03:18:10.086Z,10.19
2023-05-17T03:20:37.875Z,10.33
2023-05-17T03:23:05.583Z,10.00
2023-05-17T03:25:34.700Z,9.87
2023-05-17T03:28:02.491Z,10.07
2023-05-17T03:30:30.286Z,10.15
2023-05-17T03:32:58.117Z,10.20
2023-05-17T03:35:25.972Z,10.19
2023-05-17T03:37:53.819Z,10.28
2023-05-17T03:40:21.565Z,10.19
2023-05-17T03:42:51.525Z,10.12
2023-05-17T03:45:19.367Z,10.23
2023-05-17T03:47:47.142Z,10.15
2023-05-17T03:50:14.962Z,10.13
2023-05-17T03:52:42.935Z,10.47
2023-05-17T03:55:10.958Z,10.57
2023-05-17T03:57:38.701Z,10.52
2023-05-17T04:00:11.678Z,10.36
2023-05-17T04:02:39.700Z,10.35
2023-05-17T04:05:08.019Z,10.17
2023-05-17T04:07:35.825Z,10.26
2023-05-17T04:10:03.820Z,10.10
2023-05-17T04:12:31.625Z,10.10
2023-05-17T04:14:59.382Z,10.21
2023-05-17T04:17:28.671Z,10.15
2023-05-17T04:19:56.632Z,9.90
2023-05-17T04:22:24.431Z,10.03
2023-05-17T04:24:52.257Z,10.04
2023-05-17T04:27:19.975Z,10.04
2023-05-17T04:29:47.690Z,9.86
2023-05-17T04:32:15.440Z,10.02
2023-05-17T04:34:44.538Z,10.10
2023-05-17T04:37:12.328Z,10.08
2023-05-17T04:39:40.137Z,10.06
2023-05-17T04:42:07.902Z,10.28
2023-05-17T04:44:35.659Z,10.28
2023-05-17T04:47:03.937Z,10.43
2023-05-17T04:49:31.682Z,10.10
2023-05-17T04:52:00.805Z,10.25
2023-05-17T04:54:28.545Z,10.31
2023-05-17T04:56:56.636Z,10.38
2023-05-17T04:59:24.384Z,10.64
2023-05-17T05:01:52.268Z,10.73
2023-05-17T05:04:20.223Z,10.64
2023-05-17T05:06:48.148Z,10.41
2023-05-17T05:09:17.359Z,10.73
2023-05-17T05:11:45.207Z,10.83
2023-05-17T05:14:12.899Z,10.99
2023-05-17T05:16:40.645Z,11.08
2023-05-17T05:19:09.348Z,11.07
2023-05-17T05:21:37.515Z,11.09
2023-05-17T05:24:05.435Z,11.13
2023-05-17T05:26:34.569Z,11.23
2023-05-17T05:29:02.359Z,11.24
2023-05-17T05:31:30.755Z,11.32
2023-05-17T05:33:58.530Z,11.12
2023-05-17T05:36:26.401Z,11.28
2023-05-17T05:38:54.811Z,11.42
2023-05-17T05:41:22.614Z,11.26
2023-05-17T05:43:51.706Z,11.59
2023-05-17T05:46:19.504Z,10.95
2023-05-17T05:48:47.338Z,11.48
2023-05-17T05:51:15.161Z,11.75
2023-05-17T05:53:42.882Z,11.44
2023-05-17T05:56:11.040Z,11.75
2023-05-17T05:58:39.083Z,12.01
2023-05-17T06:01:08.235Z,11.99
2023-05-17T06:03:36.165Z,12.15
2023-05-17T06:06:03.961Z,12.58
2023-05-17T06:08:31.697Z,12.23
2023-05-17T06:10:59.494Z,12.06
2023-05-17T06:13:27.224Z,12.04
2023-05-17T06:15:54.994Z,12.43
2023-05-17T06:18:24.237Z,12.75
2023-05-17T06:20:52.203Z,12.69
2023-05-17T06:23:19.989Z,12.62
2023-05-17T06:25:47.777Z,12.68
2023-05-17T06:28:15.678Z,12.77
2023-05-17T06:30:43.529Z,13.04
2023-05-17T06:33:11.328Z,12.61
2023-05-17T06:35:54.770Z,12.99
2023-05-17T06:38:23.749Z,13.31
2023-05-17T06:40:53.194Z,13.62
2023-05-17T06:43:21.248Z,13.91
2023-05-17T06:45:49.091Z,13.97
2023-05-17T06:48:17.809Z,14.37
2023-05-17T06:50:47.000Z,14.69
2023-05-17T06:53:14.986Z,14.83
2023-05-17T06:55:43.220Z,14.91
2023-05-17T06:58:11.221Z,15.10
2023-05-17T07:00:39.164Z,15.04
2023-05-17T07:03:09.719Z,14.91
2023-05-17T07:05:37.556Z,15.07
2023-05-17T07:08:06.929Z,15.44
2023-05-17T07:10:34.807Z,15.32
2023-05-17T07:13:02.569Z,15.67
2023-05-17T07:15:30.565Z,15.63
2023-05-17T07:17:59.340Z,15.90
2023-05-17T07:20:27.240Z,15.80
2023-05-17T07:22:55.175Z,15.94
2023-05-17T07:25:24.286Z,15.56
2023-05-17T07:27:52.025Z,15.93
2023-05-17T07:30:19.774Z,15.65
2023-05-17T07:32:47.608Z,16.08
2023-05-17T07:35:15.672Z,16.14
2023-05-17T07:37:43.722Z,15.84
2023-05-17T07:40:12.477Z,15.71
2023-05-17T07:42:41.562Z,16.19
2023-05-17T07:45:10.656Z,16.45
2023-05-17T07:47:38.519Z,16.51
2023-05-17T07:50:07.492Z,16.71
2023-05-17T07:52:35.272Z,16.64
2023-05-17T07:55:03.988Z,16.32
2023-05-17T07:57:31.732Z,16.60
2023-05-17T08:00:00.845Z,16.78
2023-05-17T08:02:28.692Z,17.02
2023-05-17T08:04:56.587Z,16.73
2023-05-17T08:07:24.403Z,17.11
2023-05-17T08:09:52.151Z,17.15
2023-05-17T08:12:19.884Z,17.36
2023-05-17T08:14:47.824Z,16.67
2023-05-17T08:17:16.917Z,16.69
2023-05-17T08:19:44.962Z,17.24
2023-05-17T08:22:12.760Z,17.35
2023-05-17T08:24:40.587Z,17.22
2023-05-17T08:27:08.365Z,17.31
2023-05-17T08:29:37.636Z,17.29
2023-05-17T08:32:08.278Z,17.48
2023-05-17T08:34:37.916Z,17.58
2023-05-17T08:37:06.199Z,17.72
2023-05-17T08:39:34.058Z,17.88
2023-05-17T08:42:02.550Z,18.04
2023-05-17T08:44:30.396Z,18.40
2023-05-17T08:47:00.096Z,18.10
2023-05-17T08:49:30.707Z,17.79
2023-05-17T08:52:02.007Z,18.20
2023-05-17T08:54:30.025Z,18.14
2023-05-17T08:57:02.202Z,18.50
2023-05-17T08:59:33.954Z,18.21
2023-05-17T09:02:02.353Z,17.97
2023-05-17T09:04:31.156Z,17.88
2023-05-17T09:07:00.295Z,18.50
2023-05-17T09:09:28.414Z,18.50
2023-05-17T09:11:56.452Z,18.36
2023-05-17T09:14:24.164Z,18.92
2023-05-17T09:16:58.391Z,19.44
2023-05-17T09:19:26.213Z,19.40
2023-05-17T09:21:55.380Z,19.23
2023-05-17T09:24:31.014Z,19.03
2023-05-17T09:27:03.286Z,18.77
2023-05-17T09:29:32.462Z,19.36
2023-05-17T09:32:13.965Z,19.23
2023-05-17T09:34:42.327Z,19.36
2023-05-17T09:37:17.747Z,19.40
2023-05-17T09:39:48.584Z,19.55
2023-05-17T09:42:17.718Z,19.42
2023-05-17T09:44:50.964Z,19.05
2023-05-17T09:47:25.371Z,18.80
2023-05-17T09:49:53.692Z,19.18
2023-05-17T09:52:22.308Z,19.58
2023-05-17T09:54:55.287Z,19.59
2023-05-17T09:57:23.719Z,19.02
2023-05-17T09:59:53.104Z,18.52
2023-05-17T10:02:27.792Z,18.96
2023-05-17T10:04:59.248Z,18.99
2023-05-17T10:07:28.194Z,18.99
2023-05-17T10:09:58.450Z,19.37
2023-05-17T10:12:29.999Z,19.35
2023-05-17T10:14:59.998Z,19.22
2023-05-17T10:17:29.832Z,19.78
2023-05-17T10:19:58.866Z,19.80
2023-05-17T10:22:29.189Z,18.84
2023-05-17T10:24:59.118Z,19.75
2023-05-17T10:27:27.851Z,19.32
2023-05-17T10:29:55.902Z,19.04
2023-05-17T10:32:27.092Z,19.65
2023-05-17T10:35:09.158Z,19.99
2023-05-17T10:37:40.245Z,19.69
2023-05-17T10:40:13.776Z,19.62
2023-05-17T10:42:45.641Z,19.77
2023-05-17T10:45:14.920Z,20.36
2023-05-17T10:47:46.010Z,20.29
2023-05-17T10:50:15.233Z,19.78
2023-05-17T10:52:48.509Z,19.75
2023-05-17T10:55:21.865Z,20.08
2023-05-17T10:58:17.020Z,20.20
2023-05-17T11:00:47.171Z,20.39
2023-05-17T11:03:18.089Z,20.13
2023-05-17T11:06:12.698Z,20.20
2023-05-17T11:08:48.083Z,20.34
2023-05-17T11:11:20.700Z,20.67
2023-05-17T11:13:53.753Z,20.17
2023-05-17T11:16:26.205Z,20.49
2023-05-17T11:18:55.989Z,20.74
2023-05-17T11:21:24.087Z,20.99
2023-05-17T11:23:57.327Z,21.11
2023-05-17T11:26:34.065Z,21.16
2023-05-17T11:29:04.132Z,20.43
2023-05-17T11:31:33.471Z,20.58
2023-05-17T11:34:01.664Z,20.92
2023-05-17T11:36:29.483Z,21.05
2023-05-17T11:39:20.624Z,21.50
2023-05-17T11:41:53.911Z,21.63
2023-05-17T11:44:28.716Z,21.78
2023-05-17T11:47:04.102Z,21.59
2023-05-17T11:49:36.123Z,21.62
2023-05-17T11:52:05.102Z,21.91
2023-05-17T11:54:33.118Z,22.09
2023-05-17T11:57:03.656Z,22.39
2023-05-17T11:59:38.407Z,22.18
2023-05-17T12:02:06.288Z,22.64
2023-05-17T12:04:37.696Z,22.13
2023-05-17T12:07:06.284Z,21.67
2023-05-17T12:09:34.881Z,21.72
2023-05-17T12:12:05.859Z,22.00
2023-05-17T12:14:33.888Z,21.87
2023-05-17T12:17:04.263Z,22.14
2023-05-17T12:19:32.932Z,22.70
2023-05-17T12:22:08.680Z,22.67
2023-05-17T12:24:40.311Z,22.18
2023-05-17T12:27:09.701Z,22.19
2023-05-17T12:29:37.451Z,21.95
2023-05-17T12:32:07.203Z,22.42
2023-05-17T12:34:35.417Z,22.07
2023-05-17T12:37:03.868Z,22.66
2023-05-17T12:39:32.595Z,22.87
2023-05-17T12:42:02.005Z,22.68
2023-05-17T12:44:31.143Z,23.19
2023-05-17T12:46:58.999Z,22.84
2023-05-17T12:49:26.847Z,21.85
2023-05-17T12:51:54.619Z,22.29
2023-05-17T12:54:29.734Z,22.44
2023-05-17T12:56:58.202Z,23.33
2023-05-17T12:59:26.381Z,22.60
2023-05-17T13:01:56.688Z,22.59
2023-05-17T13:04:31.658Z,21.53
2023-05-17T13:07:01.699Z,21.93
2023-05-17T13:09:32.024Z,22.47
2023-05-17T13:12:01.919Z,23.20
2023-05-17T13:14:38.034Z,22.37
2023-05-17T13:17:09.068Z,22.57
2023-05-17T13:19:37.417Z,22.27
2023-05-17T13:22:05.905Z,22.07
2023-05-17T13:24:35.997Z,23.13
2023-05-17T13:27:05.006Z,23.22
2023-05-17T13:29:39.659Z,23.41
2023-05-17T13:32:11.550Z,22.99
2023-05-17T13:34:39.641Z,23.27
2023-05-17T13:37:11.101Z,23.07
2023-05-17T13:39:40.246Z,23.32
2023-05-17T13:42:08.423Z,23.42
2023-05-17T13:44:36.300Z,24.24
2023-05-17T13:47:04.212Z,23.02
2023-05-17T13:49:33.395Z,22.21
2023-05-17T13:52:01.419Z,22.37
2023-05-17T13:54:29.218Z,23.09
2023-05-17T13:56:57.447Z,22.98
2023-05-17T13:59:25.269Z,23.45
2023-05-17T14:01:53.104Z,23.82
2023-05-17T14:04:21.337Z,23.40
2023-05-17T14:06:54.121Z,23.03
2023-05-17T14:09:22.925Z,23.02
2023-05-17T14:11:50.977Z,23.45
2023-05-17T14:14:18.773Z,23.10
2023-05-17T14:16:46.584Z,22.81
2023-05-17T14:19:14.352Z,22.15
2023-05-17T14:21:42.121Z,21.84
2023-05-17T14:24:11.390Z,22.03
2023-05-17T14:26:39.190Z,22.23
2023-05-17T14:29:07.570Z,23.14
2023-05-17T14:31:35.617Z,23.85
2023-05-17T14:34:03.899Z,22.51
2023-05-17T14:36:31.820Z,22.10
2023-05-17T14:38:59.592Z,22.38
2023-05-17T14:41:28.756Z,22.28
2023-05-17T14:43:56.506Z,22.58
2023-05-17T14:46:24.839Z,22.97
2023-05-17T14:48:53.003Z,22.00
2023-05-17T14:51:20.725Z,21.60
2023-05-17T14:53:48.578Z,21.70
2023-05-17T14:56:16.812Z,21.68
2023-05-17T14:58:46.738Z,21.38
2023-05-17T15:01:15.318Z,21.21
2023-05-17T15:03:43.172Z,21.21
2023-05-17T15:06:12.016Z,21.58
2023-05-17T15:08:40.729Z,21.31
2023-05-17T15:11:08.484Z,20.74
2023-05-17T15:13:36.284Z,21.30
2023-05-17T15:16:05.996Z,21.10
2023-05-17T15:18:33.816Z,21.07
2023-05-17T15:21:03.050Z,21.89
2023-05-17T15:23:30.879Z,21.93
2023-05-17T15:25:58.684Z,21.61
2023-05-17T15:28:26.540Z,21.45
2023-05-17T15:31:01.572Z,21.00
2023-05-17T15:33:32.158Z,20.96
2023-05-17T15:36:00.062Z,21.14
2023-05-17T15:38:27.890Z,20.62
2023-05-17T15:41:04.968Z,20.75
2023-05-17T15:43:33.559Z,20.85
2023-05-17T15:46:01.860Z,20.98
2023-05-17T15:48:31.143Z,21.05
2023-05-17T15:50:59.113Z,21.41
2023-05-17T15:53:27.701Z,21.66
2023-05-17T15:55:55.880Z,21.24
2023-05-17T15:58:27.742Z,21.48
2023-05-17T16:00:55.909Z,21.67
2023-05-17T16:03:23.741Z,21.55
2023-05-17T16:05:52.914Z,21.38
2023-05-17T16:08:21.353Z,21.92
2023-05-17T16:10:49.105Z,21.25
2023-05-17T16:13:17.475Z,21.32
2023-05-17T16:15:45.303Z,21.56
2023-05-17T16:18:15.022Z,20.97
2023-05-17T16:20:43.037Z,21.26
2023-05-17T16:23:12.810Z,20.96
2023-05-17T16:25:41.593Z,21.05
2023-05-17T16:28:09.373Z,20.97
2023-05-17T16:30:37.530Z,21.04
2023-05-17T16:33:08.170Z,21.09
2023-05-17T16:35:36.460Z,20.92
2023-05-17T16:38:04.196Z,20.82
2023-05-17T16:40:33.981Z,21.24
2023-05-17T16:43:02.119Z,21.14
2023-05-17T16:45:30.124Z,21.10
2023-05-17T16:47:58.157Z,20.68
2023-05-17T16:50:26.065Z,20.75
2023-05-17T16:52:53.849Z,20.62
2023-05-17T16:55:21.684Z,21.01
2023-05-17T16:57:51.381Z,20.27
2023-05-17T17:00:20.184Z,19.93
2023-05-17T17:02:48.024Z,20.27
2023-05-17T17:05:16.045Z,20.10
2023-05-17T17:07:45.842Z,20.26
2023-05-17T17:10:13.864Z,20.24
2023-05-17T17:12:41.668Z,20.14
2023-05-17T17:15:11.714Z,20.58
2023-05-17T17:17:39.637Z,20.15
2023-05-17T17:20:09.314Z,19.58
2023-05-17T17:22:37.045Z,19.57
2023-05-17T17:25:05.228Z,19.78
2023-05-17T17:27:33.003Z,19.65
2023-05-17T17:30:00.917Z,19.22
2023-05-17T17:32:30.196Z,19.66
2023-05-17T17:34:58.024Z,19.79
2023-05-17T17:37:26.093Z,19.75
2023-05-17T17:39:53.837Z,19.99
2023-05-17T17:42:21.591Z,20.27
2023-05-17T17:44:49.308Z,19.53
2023-05-17T17:47:17.246Z,19.75
2023-05-17T17:49:46.523Z,19.72
2023-05-17T17:52:14.230Z,20.24
2023-05-17T17:54:44.065Z,20.15
2023-05-17T17:57:13.647Z,20.04
2023-05-17T17:59:41.384Z,19.81
2023-05-17T18:02:09.178Z,20.10
2023-05-17T18:04:37.112Z,20.13
2023-05-17T18:07:06.750Z,19.62
2023-05-17T18:09:34.538Z,19.76
2023-05-17T18:12:02.325Z,19.37
2023-05-17T18:14:30.035Z,19.49
2023-05-17T18:16:57.872Z,19.57
2023-05-17T18:19:25.750Z,19.69
2023-05-17T18:21:53.588Z,19.19
2023-05-17T18:24:22.693Z,19.44
2023-05-17T18:26:50.394Z,19.06
2023-05-17T18:29:18.126Z,19.26
2023-05-17T18:31:47.425Z,19.28
2023-05-17T18:34:15.604Z,19.32
2023-05-17T18:36:43.393Z,19.22
2023-05-17T18:39:11.187Z,19.21
2023-05-17T18:41:40.314Z,19.16
2023-05-17T18:44:08.060Z,19.19
2023-05-17T18:46:35.975Z,19.24
2023-05-17T18:49:04.230Z,19.33
2023-05-17T18:51:32.604Z,19.30
2023-05-17T18:54:00.361Z,19.23
2023-05-17T18:56:28.685Z,19.06
2023-05-17T18:58:58.437Z,18.91
2023-05-17T19:01:26.868Z,18.81
2023-05-17T19:03:56.337Z,18.68
2023-05-17T19:06:25.177Z,18.60
2023-05-17T19:08:52.993Z,18.48
2023-05-17T19:11:21.500Z,18.38
2023-05-17T19:13:49.347Z,18.19
2023-05-17T19:16:18.532Z,18.31
2023-05-17T19:18:46.381Z,18.18
2023-05-17T19:21:14.221Z,18.21
2023-05-17T19:23:42.005Z,17.79
2023-05-17T19:26:09.743Z,18.02
2023-05-17T19:28:37.497Z,18.00
2023-05-17T19:31:05.383Z,17.95
2023-05-17T19:33:34.626Z,18.04
2023-05-17T19:36:02.514Z,17.71
2023-05-17T19:38:31.279Z,17.69
2023-05-17T19:40:59.079Z,17.67
2023-05-17T19:43:27.173Z,17.61
2023-05-17T19:45:55.015Z,17.33
2023-05-17T19:48:24.061Z,17.33
2023-05-17T19:50:56.131Z,17.54
2023-05-17T19:53:24.688Z,16.98
2023-05-17T19:55:52.492Z,17.19
2023-05-17T19:58:20.270Z,17.04
2023-05-17T20:00:48.181Z,17.22
2023-05-17T20:03:16.165Z,17.37
2023-05-17T20:05:44.089Z,17.12
2023-05-17T20:08:13.179Z,17.01
2023-05-17T20:10:41.025Z,16.80
2023-05-17T20:13:09.026Z,16.48
2023-05-17T20:15:36.780Z,16.80
2023-05-17T20:18:06.143Z,16.59
2023-05-17T20:20:34.786Z,16.74
2023-05-17T20:23:03.687Z,16.53
2023-05-17T20:25:33.462Z,16.43
2023-05-17T20:28:01.836Z,16.44
2023-05-17T20:30:30.615Z,16.27
2023-05-17T20:32:59.791Z,16.12
2023-05-17T20:35:28.457Z,16.19
2023-05-17T20:37:56.319Z,16.33
2023-05-17T20:40:24.177Z,16.29
2023-05-17T20:42:53.946Z,16.19
2023-05-17T20:45:22.740Z,15.87
2023-05-17T20:47:51.350Z,16.13
2023-05-17T20:50:21.407Z,16.14
2023-05-17T20:52:49.387Z,16.20
2023-05-17T20:55:17.190Z,16.10
2023-05-17T20:57:44.976Z,16.03
2023-05-17T21:00:16.983Z,16.03
2023-05-17T21:02:44.963Z,15.97
2023-05-17T21:05:13.151Z,16.03
2023-05-17T21:07:40.940Z,15.81
2023-05-17T21:10:10.135Z,15.93
2023-05-17T21:12:37.843Z,15.78
2023-05-17T21:15:30.766Z,15.53
2023-05-17T21:17:55.453Z,15.51
2023-05-17T21:20:24.742Z,15.42
2023-05-17T21:22:52.803Z,15.52
2023-05-17T21:25:21.006Z,15.54
2023-05-17T21:27:48.719Z,15.56
2023-05-17T21:30:16.530Z,15.59
2023-05-17T21:32:44.336Z,15.68
2023-05-17T21:35:13.532Z,15.54
2023-05-17T21:37:42.172Z,15.47
2023-05-17T21:40:10.708Z,15.45
2023-05-17T21:42:38.558Z,15.59
2023-05-17T21:45:07.618Z,15.67
2023-05-17T21:47:36.211Z,15.58
2023-05-17T21:50:04.280Z,15.57
2023-05-17T21:52:33.563Z,15.79
2023-05-17T21:55:01.340Z,15.70
2023-05-17T21:57:29.064Z,15.76
2023-05-17T21:59:56.922Z,15.75
2023-05-17T22:02:24.770Z,15.56
2023-05-17T22:04:52.558Z,15.50
2023-05-17T22:07:20.539Z,15.43
2023-05-17T22:09:49.676Z,15.36
2023-05-17T22:12:17.431Z,15.27
2023-05-17T22:14:45.634Z,15.21
2023-05-17T22:17:13.483Z,15.36
2023-05-17T22:19:41.808Z,15.25
2023-05-17T22:22:09.751Z,14.98
2023-05-17T22:24:37.587Z,14.98
2023-05-17T22:27:07.192Z,14.93
2023-05-17T22:29:34.985Z,15.05
2023-05-17T22:32:02.764Z,15.04
2023-05-17T22:34:30.635Z,15.10
2023-05-17T22:36:58.374Z,15.13
2023-05-17T22:39:26.119Z,15.13
2023-05-17T22:41:53.869Z,14.88
2023-05-17T22:44:23.117Z,14.44
2023-05-17T22:46:51.058Z,14.48
2023-05-17T22:49:20.204Z,14.18
2023-05-17T22:51:47.994Z,13.96
2023-05-17T22:54:15.754Z,13.96
2023-05-17T22:56:43.583Z,14.35
2023-05-17T22:59:11.621Z,14.53
2023-05-17T23:01:40.810Z,14.69
2023-05-17T23:04:08.636Z,14.71
2023-05-17T23:06:36.458Z,14.21
2023-05-17T23:09:06.030Z,14.10
2023-05-17T23:11:34.814Z,14.05
2023-05-17T23:14:02.678Z,13.84
2023-05-17T23:16:30.498Z,13.70
2023-05-17T23:19:00.153Z,13.69
2023-05-17T23:21:28.061Z,13.65
2023-05-17T23:23:56.008Z,13.68
2023-05-17T23:26:23.779Z,13.60
2023-05-17T23:28:53.695Z,13.53
2023-05-17T23:31:22.248Z,13.21
2023-05-17T23:33:50.177Z,13.25
2023-05-17T23:36:21.607Z,13.40
2023-05-17T23:38:49.772Z,13.40
2023-05-17T23:41:19.698Z,13.10
2023-05-17T23:43:47.715Z,13.25
2023-05-17T23:46:19.809Z,13.11
2023-05-17T23:48:50.583Z,12.92
2023-05-17T23:51:21.181Z,12.96
2023-05-17T23:53:49.869Z,12.99
2023-05-17T23:56:18.270Z,12.89
2023-05-17T23:58:46.429Z,13.03
